sensor_id;sensor_type;location;lat;lon;timestamp;pressure;altitude;pressure_sealevel;temperature;humidity
73205;BME280;61413;-27.702;153.216;2024-01-15T00:00:05;101164.44;;;34.44;31.93
73205;BME280;61413;-27.702;153.216;2024-01-15T00:02:32;101164.66;;;32.78;32.14
73205;BME280;61413;-27.702;153.216;2024-01-15T00:04:58;101164.74;;;31.43;32.86
73205;BME280;61413;-27.702;153.216;2024-01-15T00:07:25;101168.57;;;34.21;30.74
73205;BME280;61413;-27.702;153.216;2024-01-15T00:09:52;101161.53;;;34.67;29.94
73205;BME280;61413;-27.702;153.216;2024-01-15T00:12:18;101164.67;;;36.88;27.75
73205;BME280;61413;-27.702;153.216;2024-01-15T00:14:45;101164.70;;;34.87;28.53
73205;BME280;61413;-27.702;153.216;2024-01-15T00:17:12;101169.08;;;32.79;29.49
73205;BME280;61413;-27.702;153.216;2024-01-15T00:19:39;101170.00;;;32.96;30.15
73205;BME280;61413;-27.702;153.216;2024-01-15T00:22:05;101153.61;;;35.91;27.90
73205;BME280;61413;-27.702;153.216;2024-01-15T00:24:32;101147.87;;;38.34;25.84
73205;BME280;61413;-27.702;153.216;2024-01-15T00:26:58;101147.31;;;39.19;24.68
73205;BME280;61413;-27.702;153.216;2024-01-15T00:29:25;101148.16;;;38.89;23.72
73205;BME280;61413;-27.702;153.216;2024-01-15T00:31:56;101154.02;;;38.75;23.53
73205;BME280;61413;-27.702;153.216;2024-01-15T00:34:19;101147.65;;;39.44;23.15
73205;BME280;61413;-27.702;153.216;2024-01-15T00:36:45;101149.43;;;36.99;24.79
73205;BME280;61413;-27.702;153.216;2024-01-15T00:39:12;101158.59;;;37.15;24.86
73205;BME280;61413;-27.702;153.216;2024-01-15T00:41:39;101160.13;;;36.90;25.27
73205;BME280;61413;-27.702;153.216;2024-01-15T00:44:06;101158.15;;;40.02;22.65
73205;BME280;61413;-27.702;153.216;2024-01-15T00:46:35;101162.07;;;35.99;24.76
73205;BME280;61413;-27.702;153.216;2024-01-15T00:48:59;101168.27;;;33.78;27.16
73205;BME280;61413;-27.702;153.216;2024-01-15T00:51:26;101177.76;;;33.83;28.14
73205;BME280;61413;-27.702;153.216;2024-01-15T00:56:28;101166.32;;;34.52;27.63
73205;BME280;61413;-27.702;153.216;2024-01-15T01:00:51;101162.18;;;33.56;29.49
73205;BME280;61413;-27.702;153.216;2024-01-15T01:03:19;101148.33;;;32.92;30.19
73205;BME280;61413;-27.702;153.216;2024-01-15T01:05:46;101142.58;;;32.09;30.82
73205;BME280;61413;-27.702;153.216;2024-01-15T01:08:10;101129.05;;;35.58;28.97
73205;BME280;61413;-27.702;153.216;2024-01-15T01:10:38;101120.54;;;33.95;28.62
73205;BME280;61413;-27.702;153.216;2024-01-15T01:13:05;101129.13;;;36.25;27.27
73205;BME280;61413;-27.702;153.216;2024-01-15T01:15:31;101135.76;;;36.36;26.98
73205;BME280;61413;-27.702;153.216;2024-01-15T01:17:58;101133.76;;;38.00;25.31
73205;BME280;61413;-27.702;153.216;2024-01-15T01:22:22;101130.27;;;36.61;25.24
73205;BME280;61413;-27.702;153.216;2024-01-15T01:24:49;101124.85;;;36.71;25.54
73205;BME280;61413;-27.702;153.216;2024-01-15T01:27:16;101122.71;;;36.52;25.53
73205;BME280;61413;-27.702;153.216;2024-01-15T01:29:42;101118.59;;;39.63;23.89
73205;BME280;61413;-27.702;153.216;2024-01-15T01:32:10;101113.86;;;36.38;24.60
73205;BME280;61413;-27.702;153.216;2024-01-15T01:34:41;101104.92;;;33.52;27.08
73205;BME280;61413;-27.702;153.216;2024-01-15T01:37:04;101099.73;;;32.22;29.00
73205;BME280;61413;-27.702;153.216;2024-01-15T01:39:31;101104.02;;;32.24;30.12
73205;BME280;61413;-27.702;153.216;2024-01-15T01:41:58;101103.39;;;32.69;30.31
73205;BME280;61413;-27.702;153.216;2024-01-15T01:44:24;101102.41;;;32.50;30.76
73205;BME280;61413;-27.702;153.216;2024-01-15T01:46:51;101102.22;;;31.58;31.56
73205;BME280;61413;-27.702;153.216;2024-01-15T01:49:18;101105.37;;;31.29;32.02
73205;BME280;61413;-27.702;153.216;2024-01-15T01:51:45;101110.30;;;30.92;32.61
73205;BME280;61413;-27.702;153.216;2024-01-15T01:54:13;101113.96;;;31.24;32.57
73205;BME280;61413;-27.702;153.216;2024-01-15T01:56:40;101114.15;;;30.97;33.11
73205;BME280;61413;-27.702;153.216;2024-01-15T01:59:07;101117.32;;;30.49;33.39
73205;BME280;61413;-27.702;153.216;2024-01-15T02:01:32;101116.06;;;30.47;33.76
73205;BME280;61413;-27.702;153.216;2024-01-15T02:04:00;101114.73;;;30.90;33.44
73205;BME280;61413;-27.702;153.216;2024-01-15T02:06:27;101109.60;;;31.61;32.95
73205;BME280;61413;-27.702;153.216;2024-01-15T02:08:55;101107.17;;;32.13;32.57
73205;BME280;61413;-27.702;153.216;2024-01-15T02:11:22;101106.21;;;31.08;32.63
73205;BME280;61413;-27.702;153.216;2024-01-15T02:13:49;101100.63;;;31.00;32.69
73205;BME280;61413;-27.702;153.216;2024-01-15T02:17:10;101097.44;;;30.68;33.68
73205;BME280;61413;-27.702;153.216;2024-01-15T02:19:38;101099.56;;;30.70;34.04
73205;BME280;61413;-27.702;153.216;2024-01-15T02:22:05;101093.45;;;29.84;34.42
73205;BME280;61413;-27.702;153.216;2024-01-15T02:24:32;101090.74;;;30.36;34.45
73205;BME280;61413;-27.702;153.216;2024-01-15T02:27:00;101083.93;;;29.46;35.04
73205;BME280;61413;-27.702;153.216;2024-01-15T02:29:26;101077.64;;;30.44;35.13
73205;BME280;61413;-27.702;153.216;2024-01-15T02:31:54;101071.16;;;30.31;35.24
73205;BME280;61413;-27.702;153.216;2024-01-15T02:34:21;101058.26;;;30.61;35.25
73205;BME280;61413;-27.702;153.216;2024-01-15T02:36:47;101057.64;;;30.17;35.10
73205;BME280;61413;-27.702;153.216;2024-01-15T02:39:14;101062.33;;;30.81;35.06
73205;BME280;61413;-27.702;153.216;2024-01-15T02:41:41;101059.22;;;30.90;34.83
73205;BME280;61413;-27.702;153.216;2024-01-15T02:44:08;101061.06;;;30.46;34.93
73205;BME280;61413;-27.702;153.216;2024-01-15T02:46:35;101080.01;;;30.27;35.29
73205;BME280;61413;-27.702;153.216;2024-01-15T02:49:02;101078.90;;;30.86;35.06
73205;BME280;61413;-27.702;153.216;2024-01-15T02:51:29;101080.50;;;30.68;35.01
73205;BME280;61413;-27.702;153.216;2024-01-15T02:53:56;101078.92;;;30.62;35.05
73205;BME280;61413;-27.702;153.216;2024-01-15T02:56:23;101086.76;;;30.39;35.30
73205;BME280;61413;-27.702;153.216;2024-01-15T02:58:50;101086.76;;;30.66;35.05
73205;BME280;61413;-27.702;153.216;2024-01-15T03:01:19;101084.49;;;30.69;35.27
73205;BME280;61413;-27.702;153.216;2024-01-15T03:03:43;101089.56;;;30.67;35.35
73205;BME280;61413;-27.702;153.216;2024-01-15T03:06:10;101096.12;;;30.50;35.64
73205;BME280;61413;-27.702;153.216;2024-01-15T03:08:38;101090.89;;;30.19;35.76
73205;BME280;61413;-27.702;153.216;2024-01-15T03:11:05;101088.13;;;30.03;35.95
73205;BME280;61413;-27.702;153.216;2024-01-15T03:13:32;101077.50;;;30.03;36.41
73205;BME280;61413;-27.702;153.216;2024-01-15T03:15:58;101074.94;;;29.73;36.35
73205;BME280;61413;-27.702;153.216;2024-01-15T03:18:25;101077.12;;;29.82;36.53
73205;BME280;61413;-27.702;153.216;2024-01-15T03:22:01;101076.60;;;30.05;36.30
73205;BME280;61413;-27.702;153.216;2024-01-15T03:24:28;101068.43;;;30.03;35.82
73205;BME280;61413;-27.702;153.216;2024-01-15T03:26:55;101061.75;;;29.61;36.21
73205;BME280;61413;-27.702;153.216;2024-01-15T03:29:22;101071.51;;;29.52;36.20
73205;BME280;61413;-27.702;153.216;2024-01-15T03:31:49;101076.20;;;29.30;36.08
73205;BME280;61413;-27.702;153.216;2024-01-15T03:34:16;101075.13;;;29.56;36.01
73205;BME280;61413;-27.702;153.216;2024-01-15T03:36:42;101064.89;;;29.18;36.35
73205;BME280;61413;-27.702;153.216;2024-01-15T03:39:09;101070.08;;;29.33;37.18
73205;BME280;61413;-27.702;153.216;2024-01-15T03:41:35;101067.00;;;28.76;37.12
73205;BME280;61413;-27.702;153.216;2024-01-15T03:44:02;101056.79;;;28.65;37.49
73205;BME280;61413;-27.702;153.216;2024-01-15T03:46:29;101055.89;;;28.65;37.70
73205;BME280;61413;-27.702;153.216;2024-01-15T03:48:56;101051.09;;;28.69;38.04
73205;BME280;61413;-27.702;153.216;2024-01-15T03:51:23;101056.52;;;28.97;38.13
73205;BME280;61413;-27.702;153.216;2024-01-15T03:53:51;101064.37;;;28.78;38.02
73205;BME280;61413;-27.702;153.216;2024-01-15T03:56:17;101072.56;;;28.48;38.27
73205;BME280;61413;-27.702;153.216;2024-01-15T03:58:44;101080.62;;;28.56;38.30
73205;BME280;61413;-27.702;153.216;2024-01-15T04:01:11;101089.68;;;28.50;38.46
73205;BME280;61413;-27.702;153.216;2024-01-15T04:03:38;101103.58;;;28.68;38.90
73205;BME280;61413;-27.702;153.216;2024-01-15T04:06:05;101096.57;;;28.26;39.18
73205;BME280;61413;-27.702;153.216;2024-01-15T04:08:32;101092.92;;;28.21;39.40
73205;BME280;61413;-27.702;153.216;2024-01-15T04:10:59;101082.98;;;28.31;39.41
73205;BME280;61413;-27.702;153.216;2024-01-15T04:13:26;101073.29;;;27.94;39.47
73205;BME280;61413;-27.702;153.216;2024-01-15T04:15:53;101063.49;;;27.76;39.43
73205;BME280;61413;-27.702;153.216;2024-01-15T04:18:20;101061.48;;;27.84;39.56
73205;BME280;61413;-27.702;153.216;2024-01-15T04:20:47;101070.72;;;28.18;39.64
73205;BME280;61413;-27.702;153.216;2024-01-15T04:25:39;101070.24;;;27.90;40.42
73205;BME280;61413;-27.702;153.216;2024-01-15T04:28:06;101064.34;;;28.03;40.11
73205;BME280;61413;-27.702;153.216;2024-01-15T04:30:32;101063.76;;;27.87;40.44
73205;BME280;61413;-27.702;153.216;2024-01-15T04:32:59;101058.57;;;27.75;40.58
73205;BME280;61413;-27.702;153.216;2024-01-15T04:35:26;101061.37;;;27.49;40.88
73205;BME280;61413;-27.702;153.216;2024-01-15T04:37:53;101069.43;;;27.52;40.98
73205;BME280;61413;-27.702;153.216;2024-01-15T04:40:20;101069.72;;;26.98;41.19
73205;BME280;61413;-27.702;153.216;2024-01-15T04:42:46;101066.15;;;26.88;41.58
73205;BME280;61413;-27.702;153.216;2024-01-15T04:45:13;101058.22;;;27.16;41.67
73205;BME280;61413;-27.702;153.216;2024-01-15T04:47:40;101062.53;;;26.15;42.18
73205;BME280;61413;-27.702;153.216;2024-01-15T04:50:07;101068.38;;;26.02;43.66
73205;BME280;61413;-27.702;153.216;2024-01-15T04:54:08;101067.36;;;24.39;46.14
73205;BME280;61413;-27.702;153.216;2024-01-15T04:56:35;101064.76;;;23.91;46.93
73205;BME280;61413;-27.702;153.216;2024-01-15T04:59:02;101059.59;;;23.92;47.46
73205;BME280;61413;-27.702;153.216;2024-01-15T05:02:34;101060.14;;;23.97;47.86
73205;BME280;61413;-27.702;153.216;2024-01-15T05:05:01;101059.92;;;23.71;47.85
73205;BME280;61413;-27.702;153.216;2024-01-15T05:07:28;101065.93;;;23.71;47.88
73205;BME280;61413;-27.702;153.216;2024-01-15T05:09:54;101074.19;;;23.61;47.66
73205;BME280;61413;-27.702;153.216;2024-01-15T05:12:21;101078.23;;;23.62;47.87
73205;BME280;61413;-27.702;153.216;2024-01-15T05:14:47;101075.71;;;23.70;47.88
73205;BME280;61413;-27.702;153.216;2024-01-15T05:17:14;101073.75;;;23.63;47.85
73205;BME280;61413;-27.702;153.216;2024-01-15T05:19:41;101074.98;;;23.68;47.80
73205;BME280;61413;-27.702;153.216;2024-01-15T05:22:07;101082.33;;;23.65;48.05
73205;BME280;61413;-27.702;153.216;2024-01-15T05:26:59;101085.53;;;23.25;49.03
73205;BME280;61413;-27.702;153.216;2024-01-15T05:29:26;101067.82;;;23.16;49.20
73205;BME280;61413;-27.702;153.216;2024-01-15T05:31:53;101064.30;;;23.26;49.13
73205;BME280;61413;-27.702;153.216;2024-01-15T05:34:19;101064.24;;;23.32;48.94
73205;BME280;61413;-27.702;153.216;2024-01-15T05:37:25;101054.65;;;23.40;48.96
73205;BME280;61413;-27.702;153.216;2024-01-15T05:39:52;101056.14;;;23.67;48.92
73205;BME280;61413;-27.702;153.216;2024-01-15T05:42:18;101056.06;;;23.54;48.97
73205;BME280;61413;-27.702;153.216;2024-01-15T05:44:45;101061.36;;;23.68;48.99
73205;BME280;61413;-27.702;153.216;2024-01-15T05:47:12;101061.91;;;23.79;48.94
73205;BME280;61413;-27.702;153.216;2024-01-15T05:49:39;101058.68;;;23.64;49.02
73205;BME280;61413;-27.702;153.216;2024-01-15T05:52:51;101052.58;;;23.63;49.05
73205;BME280;61413;-27.702;153.216;2024-01-15T05:55:18;101057.27;;;23.80;49.27
73205;BME280;61413;-27.702;153.216;2024-01-15T05:57:45;101057.12;;;23.92;49.33
73205;BME280;61413;-27.702;153.216;2024-01-15T06:00:13;101053.86;;;24.15;49.15
73205;BME280;61413;-27.702;153.216;2024-01-15T06:03:18;101044.68;;;24.33;49.08
73205;BME280;61413;-27.702;153.216;2024-01-15T06:05:44;101042.30;;;24.07;49.23
73205;BME280;61413;-27.702;153.216;2024-01-15T06:08:11;101036.71;;;24.20;49.04
73205;BME280;61413;-27.702;153.216;2024-01-15T06:10:38;101036.09;;;24.32;48.95
73205;BME280;61413;-27.702;153.216;2024-01-15T06:13:05;101030.65;;;23.94;48.78
73205;BME280;61413;-27.702;153.216;2024-01-15T06:15:31;101028.34;;;24.40;48.65
73205;BME280;61413;-27.702;153.216;2024-01-15T06:20:41;101022.06;;;24.59;48.63
73205;BME280;61413;-27.702;153.216;2024-01-15T06:23:08;101026.62;;;24.70;48.52
73205;BME280;61413;-27.702;153.216;2024-01-15T06:25:35;101020.31;;;24.39;48.34
73205;BME280;61413;-27.702;153.216;2024-01-15T06:28:02;101021.01;;;24.44;48.14
73205;BME280;61413;-27.702;153.216;2024-01-15T06:30:28;101020.35;;;24.47;48.15
73205;BME280;61413;-27.702;153.216;2024-01-15T06:32:54;101021.63;;;24.70;47.73
73205;BME280;61413;-27.702;153.216;2024-01-15T06:35:21;101029.59;;;25.05;47.49
73205;BME280;61413;-27.702;153.216;2024-01-15T06:37:48;101034.96;;;25.24;47.29
73205;BME280;61413;-27.702;153.216;2024-01-15T06:41:09;101039.13;;;25.23;47.32
73205;BME280;61413;-27.702;153.216;2024-01-15T06:43:36;101040.76;;;25.21;47.15
73205;BME280;61413;-27.702;153.216;2024-01-15T06:46:02;101043.83;;;25.20;47.15
73205;BME280;61413;-27.702;153.216;2024-01-15T06:48:29;101049.77;;;25.16;47.03
73205;BME280;61413;-27.702;153.216;2024-01-15T06:50:55;101051.72;;;25.23;47.08
73205;BME280;61413;-27.702;153.216;2024-01-15T06:54:35;101060.15;;;25.25;46.94
73205;BME280;61413;-27.702;153.216;2024-01-15T06:57:02;101061.15;;;25.40;46.77
73205;BME280;61413;-27.702;153.216;2024-01-15T06:59:29;101063.12;;;25.65;46.70
73205;BME280;61413;-27.702;153.216;2024-01-15T07:01:55;101059.06;;;24.90;46.47
73205;BME280;61413;-27.702;153.216;2024-01-15T07:04:22;101054.24;;;25.55;46.58
73205;BME280;61413;-27.702;153.216;2024-01-15T07:06:49;101053.88;;;25.13;46.64
73205;BME280;61413;-27.702;153.216;2024-01-15T07:09:16;101044.04;;;25.52;46.65
73205;BME280;61413;-27.702;153.216;2024-01-15T07:11:46;101044.25;;;25.18;46.57
73205;BME280;61413;-27.702;153.216;2024-01-15T07:14:09;101047.48;;;25.54;46.46
73205;BME280;61413;-27.702;153.216;2024-01-15T07:16:36;101053.47;;;25.11;46.62
73205;BME280;61413;-27.702;153.216;2024-01-15T07:19:03;101057.56;;;24.99;46.65
73205;BME280;61413;-27.702;153.216;2024-01-15T07:21:30;101059.09;;;25.07;46.72
73205;BME280;61413;-27.702;153.216;2024-01-15T07:23:58;101063.33;;;25.05;46.81
73205;BME280;61413;-27.702;153.216;2024-01-15T07:26:25;101065.82;;;25.26;46.84
73205;BME280;61413;-27.702;153.216;2024-01-15T07:28:52;101067.87;;;25.20;46.82
73205;BME280;61413;-27.702;153.216;2024-01-15T07:31:19;101065.85;;;24.90;46.94
73205;BME280;61413;-27.702;153.216;2024-01-15T07:33:46;101071.32;;;25.24;46.90
73205;BME280;61413;-27.702;153.216;2024-01-15T07:36:13;101073.61;;;25.12;47.07
73205;BME280;61413;-27.702;153.216;2024-01-15T07:38:39;101075.99;;;24.90;47.17
73205;BME280;61413;-27.702;153.216;2024-01-15T07:41:06;101075.56;;;24.70;47.40
73205;BME280;61413;-27.702;153.216;2024-01-15T07:43:33;101076.95;;;24.75;47.81
73205;BME280;61413;-27.702;153.216;2024-01-15T07:45:59;101084.55;;;24.21;48.71
73205;BME280;61413;-27.702;153.216;2024-01-15T07:48:27;101082.61;;;24.00;49.30
73205;BME280;61413;-27.702;153.216;2024-01-15T07:50:53;101077.60;;;23.64;49.93
73205;BME280;61413;-27.702;153.216;2024-01-15T07:53:20;101082.15;;;24.16;50.15
73205;BME280;61413;-27.702;153.216;2024-01-15T07:55:47;101082.27;;;23.85;50.61
73205;BME280;61413;-27.702;153.216;2024-01-15T07:58:13;101088.38;;;23.80;50.80
73205;BME280;61413;-27.702;153.216;2024-01-15T08:00:40;101095.00;;;23.68;51.07
73205;BME280;61413;-27.702;153.216;2024-01-15T08:03:06;101098.00;;;23.54;51.39
73205;BME280;61413;-27.702;153.216;2024-01-15T08:05:33;101100.62;;;23.39;51.59
73205;BME280;61413;-27.702;153.216;2024-01-15T08:07:59;101101.99;;;23.17;51.74
73205;BME280;61413;-27.702;153.216;2024-01-15T08:10:26;101105.52;;;23.02;51.95
73205;BME280;61413;-27.702;153.216;2024-01-15T08:12:53;101112.22;;;22.87;52.23
73205;BME280;61413;-27.702;153.216;2024-01-15T08:15:19;101104.04;;;22.86;52.43
73205;BME280;61413;-27.702;153.216;2024-01-15T08:17:46;101101.69;;;22.57;52.74
73205;BME280;61413;-27.702;153.216;2024-01-15T08:20:12;101100.29;;;22.11;52.81
73205;BME280;61413;-27.702;153.216;2024-01-15T08:24:21;101109.05;;;22.45;53.28
73205;BME280;61413;-27.702;153.216;2024-01-15T08:26:47;101118.87;;;22.67;53.11
73205;BME280;61413;-27.702;153.216;2024-01-15T08:29:14;101127.40;;;22.73;53.07
73205;BME280;61413;-27.702;153.216;2024-01-15T08:31:40;101129.79;;;22.99;52.80
73205;BME280;61413;-27.702;153.216;2024-01-15T08:36:43;101135.17;;;23.09;53.21
73205;BME280;61413;-27.702;153.216;2024-01-15T08:39:10;101138.20;;;23.23;53.06
73205;BME280;61413;-27.702;153.216;2024-01-15T08:41:37;101143.32;;;23.24;52.91
73205;BME280;61413;-27.702;153.216;2024-01-15T08:44:04;101140.58;;;23.39;52.85
73205;BME280;61413;-27.702;153.216;2024-01-15T08:46:31;101150.02;;;23.54;52.75
73205;BME280;61413;-27.702;153.216;2024-01-15T08:48:57;101156.52;;;23.51;52.57
73205;BME280;61413;-27.702;153.216;2024-01-15T08:51:24;101163.19;;;23.57;52.43
73205;BME280;61413;-27.702;153.216;2024-01-15T08:53:51;101167.21;;;23.56;52.35
73205;BME280;61413;-27.702;153.216;2024-01-15T08:56:18;101173.30;;;23.65;52.24
73205;BME280;61413;-27.702;153.216;2024-01-15T08:58:44;101169.55;;;23.78;52.16
73205;BME280;61413;-27.702;153.216;2024-01-15T09:01:20;101170.86;;;23.97;52.02
73205;BME280;61413;-27.702;153.216;2024-01-15T09:03:40;101175.96;;;23.71;51.98
73205;BME280;61413;-27.702;153.216;2024-01-15T09:08:21;101184.67;;;23.71;52.12
73205;BME280;61413;-27.702;153.216;2024-01-15T09:10:48;101185.94;;;23.70;51.92
73205;BME280;61413;-27.702;153.216;2024-01-15T09:13:15;101188.38;;;24.00;51.75
73205;BME280;61413;-27.702;153.216;2024-01-15T09:15:42;101194.52;;;24.10;51.60
73205;BME280;61413;-27.702;153.216;2024-01-15T09:18:09;101196.32;;;23.94;51.40
73205;BME280;61413;-27.702;153.216;2024-01-15T09:20:35;101199.19;;;23.92;51.35
73205;BME280;61413;-27.702;153.216;2024-01-15T09:23:02;101202.35;;;23.85;51.30
73205;BME280;61413;-27.702;153.216;2024-01-15T09:25:29;101207.51;;;24.12;51.16
73205;BME280;61413;-27.702;153.216;2024-01-15T09:27:56;101213.14;;;23.93;51.12
73205;BME280;61413;-27.702;153.216;2024-01-15T09:30:23;101210.21;;;24.15;51.07
73205;BME280;61413;-27.702;153.216;2024-01-15T09:32:50;101207.18;;;23.91;50.96
73205;BME280;61413;-27.702;153.216;2024-01-15T09:35:17;101201.87;;;23.96;50.87
73205;BME280;61413;-27.702;153.216;2024-01-15T09:37:44;101194.54;;;24.22;50.83
73205;BME280;61413;-27.702;153.216;2024-01-15T09:40:14;101193.84;;;24.19;50.68
73205;BME280;61413;-27.702;153.216;2024-01-15T09:42:37;101194.80;;;24.19;50.66
73205;BME280;61413;-27.702;153.216;2024-01-15T09:45:04;101195.59;;;23.95;50.60
73205;BME280;61413;-27.702;153.216;2024-01-15T09:47:31;101197.74;;;24.12;50.50
73205;BME280;61413;-27.702;153.216;2024-01-15T09:49:59;101202.91;;;23.90;50.47
73205;BME280;61413;-27.702;153.216;2024-01-15T09:52:25;101207.94;;;24.15;50.40
73205;BME280;61413;-27.702;153.216;2024-01-15T09:54:53;101211.66;;;24.04;50.32
73205;BME280;61413;-27.702;153.216;2024-01-15T09:57:20;101218.42;;;24.12;50.23
73205;BME280;61413;-27.702;153.216;2024-01-15T09:59:47;101228.97;;;24.08;50.20
73205;BME280;61413;-27.702;153.216;2024-01-15T10:02:16;101243.66;;;23.83;50.15
73205;BME280;61413;-27.702;153.216;2024-01-15T10:06:07;101255.05;;;24.03;50.36
73205;BME280;61413;-27.702;153.216;2024-01-15T10:08:36;101261.65;;;24.14;50.33
73205;BME280;61413;-27.702;153.216;2024-01-15T10:12:34;101270.03;;;24.07;50.41
73205;BME280;61413;-27.702;153.216;2024-01-15T10:15:01;101277.93;;;24.06;50.32
73205;BME280;61413;-27.702;153.216;2024-01-15T10:17:27;101285.97;;;24.16;50.18
73205;BME280;61413;-27.702;153.216;2024-01-15T10:19:54;101286.85;;;24.17;50.09
73205;BME280;61413;-27.702;153.216;2024-01-15T10:22:21;101283.00;;;23.96;50.00
73205;BME280;61413;-27.702;153.216;2024-01-15T10:24:47;101281.58;;;24.17;49.93
73205;BME280;61413;-27.702;153.216;2024-01-15T10:27:14;101290.07;;;23.61;49.75
73205;BME280;61413;-27.702;153.216;2024-01-15T10:29:42;101293.87;;;24.00;49.55
73205;BME280;61413;-27.702;153.216;2024-01-15T10:32:09;101302.60;;;23.78;49.30
73205;BME280;61413;-27.702;153.216;2024-01-15T10:34:39;101306.35;;;23.43;49.71
73205;BME280;61413;-27.702;153.216;2024-01-15T10:37:03;101311.98;;;22.64;50.33
73205;BME280;61413;-27.702;153.216;2024-01-15T10:39:31;101318.57;;;22.35;50.95
73205;BME280;61413;-27.702;153.216;2024-01-15T10:41:58;101318.91;;;21.98;51.54
73205;BME280;61413;-27.702;153.216;2024-01-15T10:44:25;101323.35;;;22.17;51.96
73205;BME280;61413;-27.702;153.216;2024-01-15T10:46:52;101329.70;;;22.15;52.23
73205;BME280;61413;-27.702;153.216;2024-01-15T10:49:20;101334.07;;;21.84;52.51
73205;BME280;61413;-27.702;153.216;2024-01-15T10:51:48;101336.82;;;21.55;52.75
73205;BME280;61413;-27.702;153.216;2024-01-15T10:54:16;101333.65;;;21.70;52.79
73205;BME280;61413;-27.702;153.216;2024-01-15T10:58:17;101334.32;;;21.82;53.33
73205;BME280;61413;-27.702;153.216;2024-01-15T11:00:45;101350.53;;;21.93;53.60
73205;BME280;61413;-27.702;153.216;2024-01-15T11:03:11;101352.83;;;21.77;53.56
73205;BME280;61413;-27.702;153.216;2024-01-15T11:05:39;101349.88;;;21.55;53.71
73205;BME280;61413;-27.702;153.216;2024-01-15T11:08:04;101348.42;;;21.80;53.64
73205;BME280;61413;-27.702;153.216;2024-01-15T11:10:48;101343.81;;;21.81;53.92
73205;BME280;61413;-27.702;153.216;2024-01-15T11:13:00;101346.51;;;21.73;53.82
73205;BME280;61413;-27.702;153.216;2024-01-15T11:17:05;101338.08;;;21.59;53.94
73205;BME280;61413;-27.702;153.216;2024-01-15T11:19:37;101334.46;;;21.66;53.95
73205;BME280;61413;-27.702;153.216;2024-01-15T11:21:57;101337.94;;;21.74;53.93
73205;BME280;61413;-27.702;153.216;2024-01-15T11:24:40;101333.24;;;22.23;53.77
73205;BME280;61413;-27.702;153.216;2024-01-15T11:26:50;101337.05;;;21.82;53.70
73205;BME280;61413;-27.702;153.216;2024-01-15T11:29:31;101344.07;;;22.23;53.61
73205;BME280;61413;-27.702;153.216;2024-01-15T11:32:14;101352.71;;;22.23;53.58
73205;BME280;61413;-27.702;153.216;2024-01-15T11:34:10;101359.64;;;22.54;53.54
73205;BME280;61413;-27.702;153.216;2024-01-15T11:37:09;101364.77;;;22.34;53.47
73205;BME280;61413;-27.702;153.216;2024-01-15T11:39:40;101359.23;;;22.17;53.43
73205;BME280;61413;-27.702;153.216;2024-01-15T11:41:32;101355.88;;;22.19;53.45
73205;BME280;61413;-27.702;153.216;2024-01-15T11:43:59;101355.47;;;22.39;53.41
73205;BME280;61413;-27.702;153.216;2024-01-15T11:46:28;101356.70;;;22.44;53.30
73205;BME280;61413;-27.702;153.216;2024-01-15T11:49:49;101360.08;;;22.43;53.38
73205;BME280;61413;-27.702;153.216;2024-01-15T11:52:01;101359.21;;;22.12;53.33
73205;BME280;61413;-27.702;153.216;2024-01-15T11:54:25;101362.46;;;22.59;53.14
73205;BME280;61413;-27.702;153.216;2024-01-15T11:56:51;101356.16;;;22.10;53.20
73205;BME280;61413;-27.702;153.216;2024-01-15T11:59:18;101352.60;;;22.42;53.06
73205;BME280;61413;-27.702;153.216;2024-01-15T12:01:45;101345.65;;;22.03;53.15
73205;BME280;61413;-27.702;153.216;2024-01-15T12:04:11;101338.46;;;22.43;53.09
73205;BME280;61413;-27.702;153.216;2024-01-15T12:06:38;101335.28;;;22.13;52.98
73205;BME280;61413;-27.702;153.216;2024-01-15T12:09:09;101339.03;;;22.43;52.86
73205;BME280;61413;-27.702;153.216;2024-01-15T12:11:32;101341.42;;;22.37;52.66
73205;BME280;61413;-27.702;153.216;2024-01-15T12:13:57;101345.04;;;22.45;52.57
73205;BME280;61413;-27.702;153.216;2024-01-15T12:16:24;101348.01;;;22.60;52.46
73205;BME280;61413;-27.702;153.216;2024-01-15T12:18:51;101343.26;;;22.27;52.37
73205;BME280;61413;-27.702;153.216;2024-01-15T12:21:18;101342.39;;;22.37;52.29
73205;BME280;61413;-27.702;153.216;2024-01-15T12:23:47;101341.69;;;22.40;52.15
73205;BME280;61413;-27.702;153.216;2024-01-15T12:26:10;101338.47;;;22.32;52.04
73205;BME280;61413;-27.702;153.216;2024-01-15T12:28:38;101334.32;;;22.36;51.93
73205;BME280;61413;-27.702;153.216;2024-01-15T12:31:04;101328.36;;;22.42;51.87
73205;BME280;61413;-27.702;153.216;2024-01-15T12:33:31;101327.68;;;22.45;51.82
73205;BME280;61413;-27.702;153.216;2024-01-15T12:35:59;101325.33;;;22.75;51.80
73205;BME280;61413;-27.702;153.216;2024-01-15T12:38:25;101315.21;;;22.37;51.80
73205;BME280;61413;-27.702;153.216;2024-01-15T12:40:54;101301.83;;;22.41;51.66
73205;BME280;61413;-27.702;153.216;2024-01-15T12:43:21;101305.78;;;22.25;51.57
73205;BME280;61413;-27.702;153.216;2024-01-15T12:45:47;101298.57;;;22.14;51.68
73205;BME280;61413;-27.702;153.216;2024-01-15T12:48:14;101292.26;;;22.06;51.75
73205;BME280;61413;-27.702;153.216;2024-01-15T12:50:44;101286.72;;;21.98;51.85
73205;BME280;61413;-27.702;153.216;2024-01-15T12:53:06;101283.74;;;22.04;51.93